Time;durP1;ratioP1;P1;durP2;ratioP2;P2;SDS_P1;SDS_P2;PMS_P1;PMS_P2;Temp;Humidity;BMP_temperature;BMP_pressure;BME280_temperature;BME280_humidity;BME280_pressure;Samples;Min_cycle;Max_cycle;Signal;HPM_P1;HPM_P2
2023/07/27 00:00:47;;;;;;;3.73;3.43;;;13.80;77.20;;;;;;5031167;28;20207;-68
2023/07/27 00:03:13;;;;;;;4.03;3.73;;;13.80;93.40;;;;;;5014114;28;20191;-67
2023/07/27 00:05:39;;;;;;;4.50;2.83;;;13.90;93.50;;;;;;5012587;28;20576;-69
2023/07/27 00:08:04;;;;;;;4.30;2.77;;;13.90;93.50;;;;;;5013364;28;20730;-67
2023/07/27 00:10:30;;;;;;;5.67;3.60;;;14.00;99.90;;;;;;5017259;28;20179;-70
2023/07/27 00:12:56;;;;;;;9.63;3.30;;;13.90;99.90;;;;;;5013190;28;20263;-71
2023/07/27 00:15:22;;;;;;;4.87;3.30;;;13.90;99.90;;;;;;5017057;28;20206;-70
2023/07/27 00:17:48;;;;;;;5.20;3.60;;;13.90;99.90;;;;;;5033318;28;20442;-71
2023/07/27 00:20:13;;;;;;;4.00;2.97;;;13.90;99.90;;;;;;5034250;28;20671;-67
2023/07/27 00:22:39;;;;;;;4.13;3.43;;;13.90;99.90;;;;;;5033334;28;20282;-67
2023/07/27 00:25:05;;;;;;;4.43;3.17;;;13.90;99.90;;;;;;5033574;28;20163;-68
2023/07/27 00:27:31;;;;;;;5.57;3.67;;;13.80;99.90;;;;;;5034427;28;20234;-68
2023/07/27 00:29:57;;;;;;;3.50;3.20;;;13.80;99.90;;;;;;5032918;28;20433;-68
2023/07/27 00:32:22;;;;;;;4.23;3.70;;;13.70;99.90;;;;;;5032696;28;20278;-70
2023/07/27 00:34:51;;;;;;;4.40;3.83;;;13.60;99.90;;;;;;5033966;28;20533;-72
2023/07/27 00:37:17;;;;;;;4.17;3.57;;;13.60;99.90;;;;;;5033274;28;20179;-71
2023/07/27 00:39:43;;;;;;;4.63;4.10;;;13.70;99.90;;;;;;5033395;28;20736;-69
2023/07/27 00:42:08;;;;;;;5.73;3.30;;;13.60;99.90;;;;;;5033903;28;20241;-72
2023/07/27 00:44:34;;;;;;;5.23;4.20;;;13.60;99.90;;;;;;5033943;28;20171;-72
2023/07/27 00:47:00;;;;;;;4.33;3.77;;;13.60;99.90;;;;;;5027821;28;20688;-71
2023/07/27 00:49:26;;;;;;;3.63;3.33;;;13.70;99.90;;;;;;5013428;28;20187;-68
2023/07/27 00:51:53;;;;;;;4.30;3.10;;;13.60;99.90;;;;;;5013934;28;20396;-71
2023/07/27 00:54:18;;;;;;;4.93;3.60;;;13.60;99.90;;;;;;5014007;28;20430;-71
2023/07/27 00:56:44;;;;;;;5.50;4.37;;;13.70;99.90;;;;;;5014900;28;21179;-68
2023/07/27 00:59:10;;;;;;;4.03;3.67;;;13.60;99.90;;;;;;5033087;28;20176;-71
2023/07/27 01:01:36;;;;;;;3.77;3.47;;;13.70;99.90;;;;;;5032308;28;20644;-67
2023/07/27 01:04:02;;;;;;;4.20;3.80;;;13.70;1.00;;;;;;5033626;28;20167;-69
2023/07/27 01:06:29;;;;;;;5.57;4.23;;;13.70;1.00;;;;;;5031516;28;20766;-67
2023/07/27 01:08:55;;;;;;;4.37;3.97;;;13.70;1.00;;;;;;5032978;28;20152;-68
2023/07/27 01:11:51;;;;;;;5.63;4.43;;;13.70;1.00;;;;;;5032601;28;20442;-69
2023/07/27 01:14:36;;;;;;;8.83;4.80;;;13.60;1.00;;;;;;5033286;28;20485;-70
2023/07/27 01:17:13;;;;;;;5.20;4.20;;;13.70;1.00;;;;;;5031135;28;20434;-68
2023/07/27 01:19:59;;;;;;;3.53;3.23;;;13.70;1.00;;;;;;5033297;28;20377;-70
2023/07/27 01:22:42;;;;;;;6.80;4.83;;;13.80;1.00;;;;;;5033119;28;20524;-68
2023/07/27 01:25:26;;;;;;;4.33;3.70;;;13.80;1.00;;;;;;5031244;28;20431;-71
2023/07/27 01:27:52;;;;;;;6.90;4.87;;;13.70;1.00;;;;;;5032940;28;20517;-67
2023/07/27 01:30:27;;;;;;;4.10;3.80;;;13.70;1.00;;;;;;5016467;28;20518;-69
2023/07/27 01:33:00;;;;;;;4.80;4.03;;;13.70;1.00;;;;;;5013488;28;20168;-68
2023/07/27 01:35:35;;;;;;;6.13;4.57;;;13.80;1.00;;;;;;5015914;28;20431;-71
2023/07/27 01:38:03;;;;;;;7.00;4.73;;;13.80;1.00;;;;;;5017442;28;20433;-68
2023/07/27 01:40:30;;;;;;;5.80;4.80;;;13.80;1.00;;;;;;5027835;28;20501;-71
2023/07/27 01:42:56;;;;;;;11.83;4.63;;;13.80;1.00;;;;;;5037290;28;20443;-71
2023/07/27 01:45:23;;;;;;;6.83;5.23;;;13.80;1.00;;;;;;5036438;28;20902;-68
2023/07/27 01:47:51;;;;;;;7.83;4.90;;;13.70;1.00;;;;;;5036421;28;20418;-67
2023/07/27 01:50:17;;;;;;;6.33;4.77;;;13.70;1.00;;;;;;5036946;28;20430;-68
2023/07/27 01:52:46;;;;;;;5.27;4.77;;;13.80;1.00;;;;;;5035965;28;20434;-69
2023/07/27 01:55:15;;;;;;;8.57;5.30;;;13.70;1.00;;;;;;5036131;28;20406;-68
2023/07/27 01:57:42;;;;;;;9.20;5.80;;;13.70;1.00;;;;;;5037045;28;20421;-67
2023/07/27 02:00:08;;;;;;;5.07;4.47;;;13.70;1.00;;;;;;5035893;28;20446;-67
2023/07/27 02:02:36;;;;;;;5.20;4.70;;;13.70;1.00;;;;;;5037011;28;20454;-70
2023/07/27 02:05:02;;;;;;;11.03;5.47;;;13.60;1.00;;;;;;5031054;28;20407;-69
2023/07/27 02:07:27;;;;;;;7.03;5.43;;;13.70;1.00;;;;;;5017714;28;20541;-69
2023/07/27 02:09:53;;;;;;;11.43;5.70;;;13.70;1.00;;;;;;5036981;28;20421;-69
2023/07/27 02:12:28;;;;;;;5.83;4.30;;;13.70;1.00;;;;;;5036327;28;20175;-67
2023/07/27 02:15:16;;;;;;;5.57;5.03;;;13.70;1.00;;;;;;5035907;28;20174;-77
2023/07/27 02:17:49;;;;;;;7.70;5.17;;;13.70;1.00;;;;;;5036711;28;20816;-70
2023/07/27 02:20:16;;;;;;;8.07;5.40;;;13.70;6.50;;;;;;5036620;28;20398;-67
2023/07/27 02:22:43;;;;;;;6.33;5.80;;;13.70;12.20;;;;;;5035230;28;20520;-70
2023/07/27 02:25:09;;;;;;;7.10;6.40;;;13.70;15.40;;;;;;5034912;28;20402;-68
2023/07/27 02:27:36;;;;;;;10.73;5.57;;;13.60;25.40;;;;;;5036366;28;20426;-67
2023/07/27 02:30:02;;;;;;;10.20;5.57;;;13.60;35.80;;;;;;5036350;28;20413;-68
2023/07/27 02:32:28;;;;;;;6.10;5.50;;;13.70;42.50;;;;;;5036312;28;20895;-69
2023/07/27 02:34:53;;;;;;;8.13;6.33;;;13.70;52.60;;;;;;5035927;28;20495;-73
2023/07/27 02:37:19;;;;;;;9.60;6.20;;;13.70;56.90;;;;;;5017045;28;20539;-68
2023/07/27 02:39:45;;;;;;;6.40;5.77;;;13.60;49.60;;;;;;5016564;28;20255;-69
2023/07/27 02:42:10;;;;;;;8.03;5.70;;;13.60;57.00;;;;;;5015823;28;20209;-72
2023/07/27 02:44:36;;;;;;;6.20;5.60;;;13.60;60.20;;;;;;5016306;28;20522;-69
2023/07/27 02:47:02;;;;;;;7.73;6.10;;;13.60;56.30;;;;;;5014935;28;20184;-69
2023/07/27 02:49:27;;;;;;;5.67;5.17;;;13.50;61.90;;;;;;5016028;28;20219;-68
2023/07/27 02:51:53;;;;;;;6.13;5.43;;;13.50;62.60;;;;;;5016119;28;20164;-70
2023/07/27 02:54:20;;;;;;;5.00;4.60;;;13.50;67.90;;;;;;5016048;28;20204;-67
2023/07/27 02:56:48;;;;;;;9.03;5.80;;;13.50;69.80;;;;;;5015311;28;20398;-69
2023/07/27 02:59:14;;;;;;;6.70;5.50;;;13.50;74.20;;;;;;5016109;28;20203;-70
2023/07/27 03:01:39;;;;;;;9.30;6.43;;;13.50;74.40;;;;;;5034501;28;20486;-71
2023/07/27 03:04:05;;;;;;;5.73;5.07;;;13.50;82.80;;;;;;5035000;28;20222;-68
2023/07/27 03:06:31;;;;;;;5.47;5.00;;;13.50;83.10;;;;;;5034968;28;20259;-71
2023/07/27 03:08:57;;;;;;;6.83;6.10;;;13.50;83.20;;;;;;5035661;28;20570;-70
2023/07/27 03:11:22;;;;;;;6.37;5.63;;;13.50;83.10;;;;;;5035658;28;20233;-68
2023/07/27 03:13:48;;;;;;;6.00;5.43;;;13.50;83.20;;;;;;5035663;28;20646;-70
2023/07/27 03:16:14;;;;;;;7.53;6.80;;;13.50;83.10;;;;;;5034168;28;20175;-68
2023/07/27 03:18:39;;;;;;;7.47;6.10;;;13.50;83.10;;;;;;5035104;28;20186;-71
2023/07/27 03:21:05;;;;;;;8.03;6.10;;;13.50;83.10;;;;;;5034044;28;20172;-70
2023/07/27 03:23:33;;;;;;;8.80;5.90;;;13.40;74.70;;;;;;5034733;28;20199;-70
2023/07/27 03:25:59;;;;;;;6.87;5.70;;;13.50;76.90;;;;;;5034792;28;20403;-68
2023/07/27 03:28:24;;;;;;;7.83;7.10;;;13.40;76.60;;;;;;5034009;28;20941;-68
2023/07/27 03:30:50;;;;;;;9.37;7.00;;;13.40;73.30;;;;;;5033833;28;20517;-69
2023/07/27 03:33:16;;;;;;;10.80;6.83;;;13.40;72.30;;;;;;5034638;28;20636;-71
2023/07/27 03:35:42;;;;;;;12.60;6.27;;;13.40;71.80;;;;;;5034285;28;20257;-70
2023/07/27 03:38:07;;;;;;;10.23;6.87;;;13.40;72.50;;;;;;5034347;28;20196;-68
2023/07/27 03:40:33;;;;;;;7.50;6.80;;;13.50;78.50;;;;;;5034753;28;20468;-70
2023/07/27 03:42:59;;;;;;;12.23;6.63;;;13.40;78.00;;;;;;5033499;28;20207;-71
2023/07/27 03:45:24;;;;;;;6.80;5.53;;;13.40;73.40;;;;;;5032163;28;20180;-70
2023/07/27 03:47:50;;;;;;;7.87;6.03;;;13.40;75.70;;;;;;5034957;28;21001;-70
2023/07/27 03:50:16;;;;;;;10.67;6.10;;;13.40;76.00;;;;;;5034739;28;20180;-69
2023/07/27 03:52:41;;;;;;;6.40;5.70;;;13.40;80.10;;;;;;5034989;28;20652;-70
2023/07/27 03:55:08;;;;;;;8.73;6.03;;;13.40;82.90;;;;;;5033770;28;20565;-68
2023/07/27 03:57:33;;;;;;;6.93;5.90;;;13.40;73.50;;;;;;5033929;28;20195;-68
2023/07/27 04:00:00;;;;;;;10.07;6.10;;;13.40;68.60;;;;;;5023352;28;20799;-68
2023/07/27 04:02:26;;;;;;;6.97;5.63;;;13.30;68.40;;;;;;5022122;28;20239;-69
2023/07/27 04:04:52;;;;;;;8.93;5.50;;;13.30;70.10;;;;;;5034541;28;20430;-70
2023/07/27 04:07:21;;;;;;;9.40;6.33;;;13.40;71.70;;;;;;5033617;28;20422;-69
2023/07/27 04:09:47;;;;;;;7.53;5.40;;;13.40;74.40;;;;;;5034212;28;20409;-70
2023/07/27 04:12:13;;;;;;;6.83;5.03;;;13.40;75.40;;;;;;5033466;28;20767;-69
2023/07/27 04:14:39;;;;;;;5.10;4.20;;;13.30;65.40;;;;;;5014062;28;20199;-74
2023/07/27 04:17:05;;;;;;;6.37;5.73;;;13.30;68.40;;;;;;5013244;28;20196;-72
2023/07/27 04:19:31;;;;;;;6.20;5.60;;;13.40;75.30;;;;;;5014538;28;20515;-69
2023/07/27 04:21:57;;;;;;;5.23;4.73;;;13.40;82.80;;;;;;5014395;28;20450;-72
2023/07/27 04:24:22;;;;;;;5.20;4.60;;;13.40;83.00;;;;;;5013549;28;20901;-68
2023/07/27 04:26:48;;;;;;;5.40;4.70;;;13.40;78.30;;;;;;5013304;28;20246;-68
2023/07/27 04:29:14;;;;;;;10.40;5.77;;;13.40;74.00;;;;;;5032190;28;20183;-70
2023/07/27 04:31:39;;;;;;;6.47;5.23;;;13.40;69.90;;;;;;5033744;28;20175;-71
2023/07/27 04:34:05;;;;;;;5.97;5.40;;;13.40;69.10;;;;;;5033784;28;20204;-69
2023/07/27 04:36:31;;;;;;;6.63;5.13;;;13.40;68.40;;;;;;5032528;28;20183;-72
2023/07/27 04:38:57;;;;;;;6.07;5.47;;;13.40;68.10;;;;;;5034033;28;20175;-71
2023/07/27 04:41:23;;;;;;;6.87;5.53;;;13.50;64.60;;;;;;5025139;28;20179;-71
2023/07/27 04:43:49;;;;;;;9.10;5.60;;;13.50;59.10;;;;;;5026216;28;20267;-70
2023/07/27 04:46:15;;;;;;;8.10;6.23;;;13.40;62.10;;;;;;5032643;28;20489;-69
2023/07/27 04:48:41;;;;;;;7.47;6.17;;;13.40;60.20;;;;;;5033418;28;20703;-69
2023/07/27 04:51:06;;;;;;;6.10;5.47;;;13.50;62.40;;;;;;5033065;28;20194;-70
2023/07/27 04:53:32;;;;;;;13.17;6.77;;;13.50;62.30;;;;;;5033174;28;20422;-71
2023/07/27 04:55:58;;;;;;;6.40;5.70;;;13.50;61.00;;;;;;5032192;28;20685;-76
2023/07/27 04:58:23;;;;;;;9.13;5.80;;;13.40;56.50;;;;;;5033510;28;20195;-69
2023/07/27 05:00:55;;;;;;;6.03;5.40;;;13.40;60.30;;;;;;5029173;28;20202;-69
2023/07/27 05:03:21;;;;;;;6.90;5.73;;;13.40;58.10;;;;;;5013829;28;20204;-69
2023/07/27 05:05:47;;;;;;;6.93;6.23;;;13.50;61.80;;;;;;5012805;28;20450;-69
2023/07/27 05:08:13;;;;;;;7.30;6.03;;;13.50;65.50;;;;;;5012517;28;20435;-70
2023/07/27 05:10:40;;;;;;;13.57;6.67;;;13.50;69.30;;;;;;5012341;28;20625;-73
2023/07/27 05:13:06;;;;;;;10.03;6.17;;;13.60;67.60;;;;;;5032638;28;20649;-70
2023/07/27 05:15:31;;;;;;;7.50;6.70;;;13.60;66.60;;;;;;5032637;28;20398;-70
2023/07/27 05:17:57;;;;;;;6.70;6.00;;;13.60;72.00;;;;;;5033399;28;20760;-70
2023/07/27 05:20:23;;;;;;;10.47;6.20;;;13.60;71.80;;;;;;5032136;28;20186;-69
2023/07/27 05:22:48;;;;;;;8.43;6.30;;;13.70;74.70;;;;;;5033218;28;20212;-71
2023/07/27 05:25:14;;;;;;;7.40;6.63;;;13.70;76.30;;;;;;5017470;28;20188;-73
2023/07/27 05:27:40;;;;;;;12.17;7.47;;;13.80;81.90;;;;;;5012965;28;20196;-72
2023/07/27 05:30:06;;;;;;;9.07;6.30;;;13.80;83.40;;;;;;5013661;28;20168;-71
2023/07/27 05:32:32;;;;;;;7.90;6.07;;;13.80;83.40;;;;;;5013339;28;20625;-71
2023/07/27 05:34:58;;;;;;;11.37;7.20;;;13.90;83.50;;;;;;5013525;28;20430;-69
2023/07/27 05:37:23;;;;;;;7.80;6.30;;;14.00;83.60;;;;;;5012835;28;20603;-71
2023/07/27 05:39:49;;;;;;;6.70;6.00;;;14.00;83.60;;;;;;5029879;28;20179;-70
2023/07/27 05:42:15;;;;;;;8.90;6.07;;;14.00;83.60;;;;;;5032164;28;20253;-69
2023/07/27 05:44:40;;;;;;;12.00;6.00;;;14.00;83.60;;;;;;5032687;28;20225;-67
2023/07/27 05:47:06;;;;;;;7.23;5.90;;;14.00;83.60;;;;;;5032225;28;20191;-68
2023/07/27 05:49:32;;;;;;;9.90;6.57;;;14.10;83.70;;;;;;5033153;28;20184;-67
2023/07/27 05:51:58;;;;;;;7.87;7.07;;;14.10;83.70;;;;;;5032077;28;20183;-67
2023/07/27 05:54:24;;;;;;;7.93;6.53;;;14.10;83.60;;;;;;5031245;28;20787;-68
2023/07/27 05:56:50;;;;;;;7.90;7.10;;;14.20;83.70;;;;;;5032289;28;20210;-66
2023/07/27 05:59:15;;;;;;;16.13;8.30;;;14.30;83.80;;;;;;5033331;28;20175;-66
2023/07/27 06:01:41;;;;;;;8.30;6.87;;;14.40;83.90;;;;;;5029684;28;20207;-68
2023/07/27 06:04:07;;;;;;;14.20;7.00;;;14.30;80.00;;;;;;5022907;28;20576;-68
2023/07/27 06:06:33;;;;;;;10.43;6.77;;;14.40;78.40;;;;;;5015730;28;20259;-67
2023/07/27 06:08:59;;;;;;;9.50;6.83;;;14.50;75.80;;;;;;5029075;28;20843;-68
2023/07/27 06:11:25;;;;;;;8.63;7.10;;;14.50;53.70;;;;;;5019604;28;20517;-70
2023/07/27 06:13:50;;;;;;;14.20;7.33;;;14.50;46.50;;;;;;5013084;28;20192;-70
2023/07/27 06:16:16;;;;;;;9.37;6.43;;;14.60;43.70;;;;;;5028221;28;20517;-69
2023/07/27 06:18:42;;;;;;;12.00;8.30;;;14.70;36.90;;;;;;5032294;28;20195;-73
2023/07/27 06:21:08;;;;;;;9.87;6.87;;;14.70;21.30;;;;;;5034202;28;20183;-71
2023/07/27 06:23:33;;;;;;;10.03;6.90;;;14.70;15.80;;;;;;5036284;28;20205;-71
2023/07/27 06:25:59;;;;;;;13.40;6.70;;;14.70;2.10;;;;;;5035593;28;20620;-71
2023/07/27 06:28:25;;;;;;;8.50;6.53;;;14.80;1.00;;;;;;5035518;28;20203;-71
2023/07/27 06:30:51;;;;;;;10.50;6.93;;;14.70;1.00;;;;;;5036201;28;20176;-69
2023/07/27 06:33:17;;;;;;;9.10;7.00;;;14.80;1.00;;;;;;5036502;28;20176;-69
2023/07/27 06:35:43;;;;;;;10.80;6.47;;;14.80;1.00;;;;;;5035616;28;20635;-70
2023/07/27 06:38:09;;;;;;;7.07;6.13;;;14.90;1.00;;;;;;5035706;28;20430;-70
2023/07/27 06:40:34;;;;;;;12.90;6.80;;;15.00;1.00;;;;;;5034564;28;20187;-71
2023/07/27 06:43:00;;;;;;;9.10;6.60;;;15.10;1.00;;;;;;5034989;28;20580;-70
2023/07/27 06:45:26;;;;;;;9.00;7.00;;;15.30;1.00;;;;;;5033561;28;20679;-76
2023/07/27 06:47:52;;;;;;;10.67;6.70;;;15.40;1.00;;;;;;5030519;28;20211;-72
2023/07/27 06:50:18;;;;;;;8.70;6.00;;;15.50;1.00;;;;;;5033248;28;20199;-70
2023/07/27 06:52:43;;;;;;;9.57;5.97;;;15.60;1.00;;;;;;5033960;28;20487;-69
2023/07/27 06:55:10;;;;;;;6.30;4.63;;;15.70;1.00;;;;;;5022376;28;20274;-69
2023/07/27 06:57:36;;;;;;;7.97;6.17;;;15.80;1.00;;;;;;5035716;28;20768;-69
2023/07/27 07:00:02;;;;;;;6.20;5.50;;;15.90;1.00;;;;;;5027005;28;20418;-69
2023/07/27 07:02:28;;;;;;;8.43;5.60;;;16.00;1.00;;;;;;5030152;28;20326;-71
2023/07/27 07:04:53;;;;;;;8.00;5.80;;;16.10;1.00;;;;;;5035584;28;20438;-69
2023/07/27 07:07:19;;;;;;;7.93;5.40;;;16.20;99.90;;;;;;5034842;28;20198;-72
2023/07/27 07:09:46;;;;;;;9.70;5.87;;;16.20;99.90;;;;;;5035588;28;20632;-72
2023/07/27 07:12:12;;;;;;;6.93;5.97;;;16.30;99.90;;;;;;5035521;28;20632;-72
2023/07/27 07:14:37;;;;;;;7.33;5.60;;;16.40;99.90;;;;;;5035159;28;20410;-70
2023/07/27 07:17:04;;;;;;;7.50;5.80;;;16.40;99.90;;;;;;5033917;28;20191;-69
2023/07/27 07:19:30;;;;;;;17.53;6.33;;;16.50;99.90;;;;;;5035087;28;20644;-69
2023/07/27 07:21:56;;;;;;;5.83;4.73;;;16.60;99.90;;;;;;5035544;28;20450;-69
2023/07/27 07:24:22;;;;;;;7.17;4.87;;;16.60;99.90;;;;;;5035468;28;20406;-71
2023/07/27 07:26:48;;;;;;;8.10;5.50;;;16.70;99.90;;;;;;5034264;28;20210;-68
2023/07/27 07:29:13;;;;;;;5.70;5.07;;;16.80;99.90;;;;;;5035139;28;20163;-69
2023/07/27 07:31:39;;;;;;;7.50;5.53;;;16.90;99.90;;;;;;5034366;28;20172;-68
2023/07/27 07:34:04;;;;;;;9.60;5.50;;;17.00;99.90;;;;;;5034086;28;20184;-71
2023/07/27 07:36:30;;;;;;;8.60;5.97;;;17.10;99.90;;;;;;5032740;28;20180;-69
2023/07/27 07:38:56;;;;;;;5.70;4.90;;;17.20;99.90;;;;;;5034665;28;20188;-70
2023/07/27 07:41:22;;;;;;;8.60;4.70;;;17.20;99.90;;;;;;5034540;28;20175;-70
2023/07/27 07:43:48;;;;;;;5.43;4.93;;;17.30;99.90;;;;;;5033789;28;20207;-72
2023/07/27 07:46:14;;;;;;;7.10;5.50;;;17.40;94.70;;;;;;5033407;28;20426;-69
2023/07/27 07:48:40;;;;;;;5.13;4.57;;;17.40;92.10;;;;;;5032538;28;20464;-72
2023/07/27 07:51:13;;;;;;;6.17;4.70;;;17.50;74.90;;;;;;5031788;28;20437;-72
2023/07/27 07:53:39;;;;;;;6.40;5.80;;;17.50;24.40;;;;;;5032354;28;20476;-72
2023/07/27 07:56:11;;;;;;;5.93;5.33;;;17.50;20.80;;;;;;5031464;28;20911;-69
2023/07/27 07:58:37;;;;;;;6.53;4.53;;;17.60;28.10;;;;;;5024444;28;20448;-69
2023/07/27 08:01:03;;;;;;;8.10;5.30;;;17.70;27.20;;;;;;5034923;28;20838;-69
2023/07/27 08:03:29;;;;;;;5.00;4.50;;;17.70;15.00;;;;;;5018076;28;20203;-70
2023/07/27 08:05:55;;;;;;;8.87;5.03;;;17.80;9.00;;;;;;5013511;28;20195;-69
2023/07/27 08:08:20;;;;;;;6.20;4.77;;;17.90;1.00;;;;;;5016861;28;20588;-70
2023/07/27 08:10:47;;;;;;;7.57;4.43;;;17.80;1.00;;;;;;5031441;28;20179;-72
2023/07/27 08:13:13;;;;;;;7.00;4.03;;;17.80;1.00;;;;;;5033285;28;20171;-72
2023/07/27 08:15:39;;;;;;;5.67;4.93;;;17.80;1.00;;;;;;5032917;28;20438;-73
2023/07/27 08:18:05;;;;;;;5.50;4.67;;;17.80;1.00;;;;;;5033641;28;20915;-73
2023/07/27 08:20:30;;;;;;;9.40;4.97;;;17.90;1.00;;;;;;5031803;28;20441;-72
2023/07/27 08:22:56;;;;;;;8.90;4.60;;;17.90;1.00;;;;;;5032045;28;20290;-72
2023/07/27 08:25:22;;;;;;;4.53;4.13;;;17.80;1.00;;;;;;5027500;28;20186;-69
2023/07/27 08:27:50;;;;;;;5.30;3.93;;;17.80;1.00;;;;;;5033034;28;20210;-71
2023/07/27 08:30:16;;;;;;;6.10;4.60;;;17.80;1.00;;;;;;5032585;28;20194;-68
2023/07/27 08:32:42;;;;;;;5.67;4.20;;;17.70;1.00;;;;;;5034009;28;20413;-73
2023/07/27 08:35:08;;;;;;;7.40;4.20;;;17.80;1.00;;;;;;5030794;28;20434;-73
2023/07/27 08:37:34;;;;;;;7.27;4.17;;;17.90;1.00;;;;;;5032427;28;20203;-69
2023/07/27 08:39:59;;;;;;;6.93;4.23;;;17.90;1.00;;;;;;5032315;28;20192;-74
2023/07/27 08:42:26;;;;;;;4.53;4.10;;;17.90;1.00;;;;;;5032623;28;20211;-73
2023/07/27 08:44:51;;;;;;;15.33;4.90;;;18.10;1.00;;;;;;5029841;28;20175;-75
2023/07/27 08:47:18;;;;;;;5.07;4.00;;;18.20;1.00;;;;;;5032503;28;20454;-69
2023/07/27 08:49:45;;;;;;;4.60;4.10;;;18.30;1.00;;;;;;5029877;28;20482;-72
2023/07/27 08:52:12;;;;;;;8.13;4.50;;;18.30;1.00;;;;;;5032740;28;20463;-72
2023/07/27 08:54:38;;;;;;;8.27;5.60;;;18.30;1.00;;;;;;5031154;28;20938;-73
2023/07/27 08:57:04;;;;;;;5.83;4.53;;;18.30;1.00;;;;;;5031152;28;20450;-69
2023/07/27 08:59:30;;;;;;;8.00;5.60;;;18.20;1.00;;;;;;5021819;28;20164;-69
2023/07/27 09:01:56;;;;;;;4.80;4.40;;;18.20;1.00;;;;;;5028811;28;20459;-70
2023/07/27 09:04:22;;;;;;;5.20;4.70;;;18.20;1.00;;;;;;5027225;28;20414;-72
2023/07/27 09:06:50;;;;;;;6.30;5.00;;;18.20;1.00;;;;;;5032409;28;20270;-70
2023/07/27 09:09:18;;;;;;;5.80;4.97;;;18.10;1.00;;;;;;5033398;28;20226;-73
2023/07/27 09:11:46;;;;;;;8.07;5.20;;;18.10;1.00;;;;;;5033426;28;20482;-73
2023/07/27 09:14:19;;;;;;;6.10;5.50;;;18.10;1.00;;;;;;5033340;28;20407;-74
2023/07/27 09:16:45;;;;;;;6.10;5.47;;;18.20;1.00;;;;;;5032031;28;20429;-71
2023/07/27 09:19:12;;;;;;;5.40;4.90;;;18.30;1.00;;;;;;5032976;28;20414;-70
2023/07/27 09:21:44;;;;;;;5.80;4.63;;;18.50;1.00;;;;;;5033226;28;20510;-73
2023/07/27 09:24:11;;;;;;;7.50;5.20;;;18.50;1.00;;;;;;5032950;28;20438;-72
2023/07/27 09:26:45;;;;;;;6.83;5.73;;;18.70;1.00;;;;;;5032404;28;20501;-73
2023/07/27 09:29:12;;;;;;;9.13;5.77;;;18.70;1.00;;;;;;5032969;28;20417;-72
2023/07/27 09:31:47;;;;;;;5.93;5.33;;;18.60;1.00;;;;;;5032336;28;20436;-74
2023/07/27 09:34:13;;;;;;;8.63;6.00;;;18.40;1.00;;;;;;5031765;28;20472;-72
2023/07/27 09:36:40;;;;;;;7.73;5.93;;;18.40;1.00;;;;;;5031298;28;20462;-73
2023/07/27 09:39:06;;;;;;;8.17;6.00;;;18.30;1.00;;;;;;5033132;28;20759;-70
2023/07/27 09:41:32;;;;;;;7.60;5.90;;;18.30;1.00;;;;;;5032021;28;20966;-72
2023/07/27 09:43:58;;;;;;;7.50;6.80;;;18.20;1.00;;;;;;5032596;28;20466;-69
2023/07/27 09:46:25;;;;;;;5.40;4.90;;;18.10;1.00;;;;;;5030596;28;20175;-73
2023/07/27 09:48:51;;;;;;;7.90;5.97;;;18.10;1.00;;;;;;5032614;28;20179;-73
2023/07/27 09:51:17;;;;;;;8.73;5.90;;;18.10;1.00;;;;;;5030834;28;20513;-73
2023/07/27 09:53:44;;;;;;;7.77;6.33;;;18.10;1.00;;;;;;5032477;28;20433;-65
2023/07/27 09:56:14;;;;;;;7.00;5.80;;;18.20;1.00;;;;;;5033924;28;20433;-72
2023/07/27 09:58:41;;;;;;;10.70;6.03;;;18.30;1.00;;;;;;5030439;28;20442;-69
2023/07/27 10:01:08;;;;;;;12.70;7.10;;;18.40;1.00;;;;;;5027644;28;20425;-72
2023/07/27 10:03:34;;;;;;;8.37;6.00;;;18.60;1.00;;;;;;5016971;28;20467;-73
2023/07/27 10:06:00;;;;;;;9.23;8.00;;;18.90;1.00;;;;;;5016089;28;20538;-73
2023/07/27 10:08:26;;;;;;;8.63;5.93;;;19.30;1.00;;;;;;5022993;28;20650;-70
2023/07/27 10:10:53;;;;;;;12.30;6.23;;;19.40;1.00;;;;;;5035626;28;20438;-72
2023/07/27 10:13:22;;;;;;;12.23;6.23;;;19.50;1.00;;;;;;5036444;28;20199;-70
2023/07/27 10:15:50;;;;;;;6.93;6.23;;;19.40;1.00;;;;;;5033919;28;20460;-70
2023/07/27 10:18:22;;;;;;;8.70;6.70;;;19.30;1.00;;;;;;5035448;28;20965;-72
2023/07/27 10:20:48;;;;;;;7.13;5.83;;;19.10;1.00;;;;;;5036546;28;20417;-72
2023/07/27 10:23:20;;;;;;;7.40;6.70;;;19.10;1.00;;;;;;5036770;28;20849;-73
2023/07/27 10:25:54;;;;;;;7.53;6.07;;;19.10;1.00;;;;;;5035435;28;20421;-69
2023/07/27 10:28:38;;;;;;;7.40;6.67;;;19.20;1.00;;;;;;5036157;28;20426;-73
2023/07/27 10:31:19;;;;;;;10.47;7.83;;;19.20;1.00;;;;;;5036405;28;20418;-70
2023/07/27 10:34:07;;;;;;;10.57;7.40;;;19.40;1.00;;;;;;5035839;28;20433;-70
2023/07/27 10:36:53;;;;;;;8.43;7.23;;;19.40;1.00;;;;;;5034058;28;20467;-69
2023/07/27 10:39:25;;;;;;;7.43;6.57;;;19.40;1.00;;;;;;5036206;28;20402;-70
2023/07/27 10:42:07;;;;;;;6.87;6.10;;;19.40;1.00;;;;;;5036059;28;20752;-70
2023/07/27 10:44:45;;;;;;;11.17;7.87;;;19.30;1.00;;;;;;5035961;28;20402;-72
2023/07/27 10:47:25;;;;;;;10.13;8.00;;;19.20;1.00;;;;;;5033627;28;20457;-72
2023/07/27 10:49:53;;;;;;;10.73;8.17;;;19.10;1.00;;;;;;5031179;28;20460;-69
2023/07/27 10:52:21;;;;;;;8.33;7.27;;;19.10;1.00;;;;;;5035161;28;20442;-73
2023/07/27 10:54:48;;;;;;;8.77;7.97;;;19.20;1.00;;;;;;5035086;28;20464;-71
2023/07/27 10:57:15;;;;;;;9.70;7.80;;;19.20;1.00;;;;;;5033759;28;20488;-69
2023/07/27 10:59:44;;;;;;;12.00;6.67;;;19.00;1.00;;;;;;5034449;28;20430;-70
2023/07/27 11:02:21;;;;;;;8.37;7.10;;;18.90;1.00;;;;;;5033696;28;20457;-73
2023/07/27 11:04:49;;;;;;;8.57;7.27;;;18.70;1.00;;;;;;5035328;28;20497;-71
2023/07/27 11:07:29;;;;;;;13.30;6.97;;;18.60;1.00;;;;;;5033460;28;20790;-69
2023/07/27 11:09:55;;;;;;;7.57;5.90;;;18.70;1.00;;;;;;5034217;28;20429;-74
2023/07/27 11:12:21;;;;;;;8.87;5.77;;;18.70;1.00;;;;;;5034672;28;20512;-69
2023/07/27 11:14:47;;;;;;;5.70;5.20;;;18.80;1.00;;;;;;5035663;28;20436;-71
2023/07/27 11:17:13;;;;;;;6.27;5.67;;;18.80;1.00;;;;;;5032179;28;20963;-73
2023/07/27 11:19:39;;;;;;;6.27;5.40;;;18.80;1.00;;;;;;5034211;28;20175;-73
2023/07/27 11:22:05;;;;;;;7.07;5.37;;;18.70;1.00;;;;;;5025059;28;20458;-73
2023/07/27 11:24:32;;;;;;;5.60;5.00;;;18.70;1.00;;;;;;5035424;28;20448;-70
2023/07/27 11:26:59;;;;;;;4.43;4.03;;;18.60;1.00;;;;;;5022630;28;20192;-73
2023/07/27 11:29:24;;;;;;;4.90;4.40;;;18.50;1.00;;;;;;5014223;28;20419;-70
2023/07/27 11:32:00;;;;;;;5.73;3.43;;;18.50;1.00;;;;;;5015238;28;20465;-69
2023/07/27 11:34:28;;;;;;;2.30;2.20;;;18.50;1.00;;;;;;5029687;28;20293;-73
2023/07/27 11:36:56;;;;;;;2.87;2.50;;;18.60;1.00;;;;;;5034149;28;20509;-73
2023/07/27 11:39:23;;;;;;;2.47;2.13;;;18.30;1.00;;;;;;5034900;28;20410;-74
2023/07/27 11:41:49;;;;;;;2.83;2.20;;;18.20;1.00;;;;;;5034615;28;20497;-72
2023/07/27 11:44:16;;;;;;;2.90;2.47;;;18.10;1.00;;;;;;5034952;28;20398;-69
2023/07/27 11:46:47;;;;;;;3.43;2.30;;;18.00;1.00;;;;;;5033635;28;20914;-70
2023/07/27 11:49:14;;;;;;;2.93;2.50;;;17.90;1.00;;;;;;5030471;28;20438;-70
2023/07/27 11:51:41;;;;;;;3.40;2.50;;;17.80;1.00;;;;;;5029696;28;20430;-70
2023/07/27 11:54:07;;;;;;;2.70;2.10;;;17.80;1.00;;;;;;5034220;28;20487;-69
2023/07/27 11:56:34;;;;;;;4.03;2.80;;;17.80;1.00;;;;;;5033106;28;20472;-69
2023/07/27 11:59:00;;;;;;;3.97;2.37;;;17.80;1.00;;;;;;5032555;28;20430;-73
2023/07/27 12:01:26;;;;;;;3.10;2.23;;;17.80;1.00;;;;;;5032059;28;20430;-74
2023/07/27 12:03:51;;;;;;;5.07;3.60;;;17.80;1.00;;;;;;5031665;28;20207;-70
2023/07/27 12:06:24;;;;;;;2.87;2.67;;;17.80;1.00;;;;;;5019133;28;20179;-72
2023/07/27 12:08:51;;;;;;;2.50;2.30;;;17.70;1.00;;;;;;5032992;28;20176;-74
2023/07/27 12:11:24;;;;;;;3.63;3.33;;;17.50;1.00;;;;;;5031405;28;20430;-70
2023/07/27 12:13:50;;;;;;;3.50;3.20;;;17.30;1.00;;;;;;5025891;28;20435;-71
2023/07/27 12:16:17;;;;;;;3.30;3.00;;;17.20;1.00;;;;;;5023875;28;20453;-72
2023/07/27 12:18:43;;;;;;;3.20;2.90;;;17.20;1.00;;;;;;5033508;28;20410;-73
2023/07/27 12:21:09;;;;;;;3.00;2.67;;;17.20;1.00;;;;;;5034251;28;20870;-69
2023/07/27 12:23:35;;;;;;;3.43;3.13;;;17.30;1.00;;;;;;5032296;28;20466;-73
2023/07/27 12:26:01;;;;;;;3.03;2.77;;;17.30;1.00;;;;;;5033745;28;20489;-69
2023/07/27 12:28:26;;;;;;;3.07;2.87;;;17.30;1.00;;;;;;5033023;28;20526;-73
2023/07/27 12:30:52;;;;;;;4.17;3.07;;;17.20;1.00;;;;;;5032383;28;20255;-70
2023/07/27 12:33:21;;;;;;;3.77;3.47;;;17.10;1.00;;;;;;5020928;28;20187;-71
2023/07/27 12:35:48;;;;;;;7.17;3.27;;;17.10;1.00;;;;;;5033154;28;20167;-72
2023/07/27 12:38:14;;;;;;;3.60;2.87;;;17.00;1.00;;;;;;5033505;28;20431;-70
2023/07/27 12:40:39;;;;;;;5.37;2.90;;;17.00;1.00;;;;;;5034303;28;20799;-70
2023/07/27 12:43:05;;;;;;;3.30;3.10;;;17.10;1.00;;;;;;5034054;28;20238;-72
2023/07/27 12:45:31;;;;;;;5.73;3.50;;;17.20;1.00;;;;;;5033180;28;20620;-71
2023/07/27 12:47:57;;;;;;;3.27;2.80;;;17.20;1.00;;;;;;5030279;28;20202;-73
2023/07/27 12:50:23;;;;;;;3.47;2.80;;;17.20;1.00;;;;;;5013703;28;20514;-70